createdAt,value
2019-06-08T00:00:02.692Z,97377.59
2019-06-08T00:05:07.827Z,97388.59
2019-06-08T00:10:12.700Z,97399.49
2019-06-08T00:15:16.299Z,97401.43
2019-06-08T00:20:19.850Z,97390.77
2019-06-08T00:25:24.220Z,97389.52
2019-06-08T00:30:28.831Z,97395.19
2019-06-08T00:35:32.739Z,97410.05
2019-06-08T00:40:36.134Z,97411.80
2019-06-08T00:45:39.599Z,97415.80
2019-06-08T00:50:43.241Z,97420.80
2019-06-08T00:55:46.637Z,97421.48
2019-06-08T01:00:50.429Z,97420.72
2019-06-08T01:05:53.817Z,97430.20
2019-06-08T01:10:57.218Z,97435.91
2019-06-08T01:16:00.617Z,97436.25
2019-06-08T01:21:04.278Z,97435.72
2019-06-08T01:26:07.667Z,97429.25
2019-06-08T01:31:11.324Z,97435.44
2019-06-08T01:36:14.715Z,97437.25
2019-06-08T01:41:18.455Z,97434.63
2019-06-08T01:46:21.969Z,97445.86
2019-06-08T01:51:26.501Z,97451.09
2019-06-08T01:56:31.218Z,97441.95
2019-06-08T02:01:34.805Z,97432.78
2019-06-08T02:06:38.229Z,97446.02
2019-06-08T02:11:41.621Z,97467.20
2019-06-08T02:16:45.019Z,97474.67
2019-06-08T02:21:48.430Z,97488.46
2019-06-08T02:26:51.877Z,97486.52
2019-06-08T02:31:55.291Z,97492.90
2019-06-08T02:36:58.715Z,97509.86
2019-06-08T02:42:02.122Z,97511.36
2019-06-08T02:47:06.027Z,97514.13
2019-06-08T02:52:10.482Z,97507.42
2019-06-08T02:57:15.050Z,97507.66
2019-06-08T03:02:20.494Z,97506.28
2019-06-08T03:07:25.144Z,97519.52
2019-06-08T03:12:28.570Z,97526.03
2019-06-08T03:17:33.383Z,97530.33
2019-06-08T03:22:40.791Z,97539.33
2019-06-08T03:27:43.188Z,97538.94
2019-06-08T03:32:55.610Z,97543.27
2019-06-08T03:37:52.790Z,97545.91
2019-06-08T03:42:58.007Z,97557.45
2019-06-08T03:48:01.475Z,97566.84
2019-06-08T03:53:05.034Z,97581.16
2019-06-08T03:58:10.398Z,97589.76
2019-06-08T04:03:13.546Z,97589.20
2019-06-08T04:08:16.936Z,97588.12
2019-06-08T04:13:20.355Z,97603.84
2019-06-08T04:18:23.757Z,97619.77
2019-06-08T04:23:27.171Z,97626.68
2019-06-08T04:28:30.563Z,97627.53
2019-06-08T04:33:33.990Z,97632.47
2019-06-08T04:38:38.923Z,97635.48
2019-06-08T04:43:43.054Z,97642.15
2019-06-08T04:48:49.856Z,97647.15
2019-06-08T04:53:52.705Z,97648.53
2019-06-08T04:58:56.096Z,97661.28
2019-06-08T05:03:59.498Z,97682.86
2019-06-08T05:09:03.359Z,97681.08
2019-06-08T05:14:06.813Z,97693.28
2019-06-08T05:19:10.226Z,97707.53
2019-06-08T05:24:13.982Z,97714.04
2019-06-08T05:29:17.378Z,97726.69
2019-06-08T05:34:20.874Z,97745.27
2019-06-08T05:39:24.284Z,97742.50
2019-06-08T05:44:27.748Z,97752.17
2019-06-08T05:49:31.149Z,97760.93
2019-06-08T05:54:34.545Z,97770.61
2019-06-08T05:59:37.933Z,97773.63
2019-06-08T06:04:42.459Z,97782.67
2019-06-08T06:09:46.950Z,97785.70
2019-06-08T06:14:51.285Z,97784.59
2019-06-08T06:19:54.827Z,97797.05
2019-06-08T06:24:58.220Z,97810.00
2019-06-08T06:30:02.230Z,97813.86
2019-06-08T06:35:06.682Z,97820.98
2019-06-08T06:40:10.718Z,97830.08
2019-06-08T06:45:14.916Z,97837.58
2019-06-08T06:50:18.636Z,97841.98
2019-06-08T06:55:25.223Z,97836.63
2019-06-08T07:00:32.561Z,97839.66
2019-06-08T07:05:36.017Z,97850.27
2019-06-08T07:10:39.409Z,97857.17
2019-06-08T07:15:42.822Z,97865.22
2019-06-08T07:20:46.274Z,97868.27
2019-06-08T07:25:50.423Z,97867.69
2019-06-08T07:30:54.872Z,97880.64
2019-06-08T07:35:59.879Z,97889.69
2019-06-08T07:41:03.404Z,97892.52
2019-06-08T07:46:07.100Z,97891.03
2019-06-08T07:51:10.491Z,97896.17
2019-06-08T07:56:13.880Z,97894.20
2019-06-08T08:01:17.269Z,97894.50
2019-06-08T08:06:20.662Z,97903.25
2019-06-08T08:11:24.422Z,97894.09
2019-06-08T08:16:27.812Z,97893.91
2019-06-08T08:21:31.208Z,97896.28
2019-06-08T08:26:34.866Z,97903.78
2019-06-08T08:31:38.270Z,97902.77
2019-06-08T08:36:41.913Z,97894.72
2019-06-08T08:41:45.304Z,97898.61
2019-06-08T08:46:50.190Z,97905.94
2019-06-08T08:51:54.093Z,97904.37
2019-06-08T08:57:01.795Z,97909.69
2019-06-08T09:02:03.148Z,97909.55
2019-06-08T09:07:09.998Z,97904.84
2019-06-08T09:12:11.785Z,97897.11
2019-06-08T09:17:17.900Z,97908.80
2019-06-08T09:22:20.421Z,97902.05
2019-06-08T09:27:23.801Z,97901.18
2019-06-08T09:32:28.186Z,97904.52
2019-06-08T09:43:34.875Z,97917.08
2019-06-08T09:48:38.356Z,97914.30
2019-06-08T09:53:41.993Z,97920.25
2019-06-08T09:58:45.657Z,97916.99
2019-06-08T10:03:49.050Z,97920.66
2019-06-08T10:08:52.452Z,97933.58
2019-06-08T10:13:59.456Z,97934.97
2019-06-08T10:19:03.897Z,97932.44
2019-06-08T10:24:09.105Z,97932.37
2019-06-08T10:29:11.245Z,97929.35
2019-06-08T10:34:14.883Z,97927.14
2019-06-08T10:39:18.517Z,97934.47
2019-06-08T10:44:21.901Z,97940.15
2019-06-08T10:49:28.430Z,97935.56
2019-06-08T10:54:30.655Z,97933.34
2019-06-08T10:59:36.582Z,97931.48
2019-06-08T11:04:43.191Z,97938.05
2019-06-08T11:09:44.372Z,97939.59
2019-06-08T11:14:48.175Z,97920.09
2019-06-08T11:19:51.628Z,97925.84
2019-06-08T11:24:55.033Z,97919.28
2019-06-08T11:29:59.585Z,97906.84
2019-06-08T11:35:06.491Z,97914.38
2019-06-08T11:40:12.884Z,97896.80
2019-06-08T11:45:17.725Z,97894.09
2019-06-08T11:50:41.791Z,97888.33
2019-06-08T11:55:44.251Z,97886.24
2019-06-08T12:01:05.480Z,97886.83
2019-06-08T12:06:12.327Z,97893.14
2019-06-08T12:11:18.817Z,97887.50
2019-06-08T12:16:22.303Z,97897.54
2019-06-08T12:21:27.253Z,97883.02
2019-06-08T12:26:30.188Z,97872.45
2019-06-08T12:31:33.818Z,97878.18
2019-06-08T12:36:37.609Z,97876.99
2019-06-08T12:41:40.975Z,97877.33
2019-06-08T12:46:44.375Z,97867.08
2019-06-08T12:51:50.670Z,97867.13
2019-06-08T12:56:52.901Z,97859.59
2019-06-08T13:01:58.528Z,97864.92
2019-06-08T13:07:01.672Z,97868.09
2019-06-08T13:12:07.738Z,97871.80
2019-06-08T13:17:11.538Z,97876.83
2019-06-08T13:22:15.285Z,97874.59
2019-06-08T13:27:21.520Z,97870.13
2019-06-08T13:32:23.817Z,97870.99
2019-06-08T13:37:27.608Z,97869.17
2019-06-08T13:42:31.042Z,97869.05
2019-06-08T13:47:38.140Z,97871.03
2019-06-08T13:52:39.805Z,97866.76
2019-06-08T13:57:43.468Z,97869.94
2019-06-08T14:02:48.492Z,97868.73
2019-06-08T14:07:51.933Z,97862.91
2019-06-08T14:12:55.382Z,97857.42
2019-06-08T14:17:58.792Z,97852.66
2019-06-08T14:23:02.250Z,97853.23
2019-06-08T14:28:05.752Z,97843.09
2019-06-08T14:33:09.144Z,97838.62
2019-06-08T14:38:12.557Z,97835.22
2019-06-08T14:43:17.631Z,97839.88
2019-06-08T14:48:24.111Z,97836.33
2019-06-08T14:53:26.846Z,97834.84
2019-06-08T14:58:34.572Z,97834.76
2019-06-08T15:03:37.715Z,97825.75
2019-06-08T15:08:40.627Z,97824.81
2019-06-08T15:13:44.028Z,97816.59
2019-06-08T15:18:47.724Z,97820.81
2019-06-08T15:23:51.120Z,97806.20
2019-06-08T15:28:54.512Z,97803.27
2019-06-08T15:34:00.683Z,97786.92
2019-06-08T15:39:03.293Z,97786.55
2019-06-08T15:44:06.684Z,97784.31
2019-06-08T15:49:11.061Z,97780.23
2019-06-08T15:54:14.565Z,97776.42
2019-06-08T15:59:17.963Z,97779.23
2019-06-08T16:04:21.353Z,97781.05
2019-06-08T16:09:25.975Z,97769.89
2019-06-08T16:14:30.937Z,97763.03
2019-06-08T16:19:35.858Z,97770.74
2019-06-08T16:24:39.358Z,97761.13
2019-06-08T16:29:43.098Z,97759.37
2019-06-08T16:34:46.496Z,97766.92
2019-06-08T16:39:49.961Z,97773.49
2019-06-08T16:44:53.649Z,97773.93
2019-06-08T16:49:57.372Z,97773.72
2019-06-08T16:55:00.793Z,97769.00
2019-06-08T17:00:30.157Z,97771.68
2019-06-08T17:05:10.621Z,97772.26
2019-06-08T17:10:14.181Z,97777.91
2019-06-08T17:15:18.234Z,97774.05
2019-06-08T17:20:21.629Z,97774.45
2019-06-08T17:25:25.026Z,97765.13
2019-06-08T17:30:28.424Z,97767.45
2019-06-08T17:35:33.387Z,97767.37
2019-06-08T17:40:37.978Z,97770.33
2019-06-08T17:45:42.765Z,97770.19
2019-06-08T17:50:46.738Z,97766.69
2019-06-08T17:55:50.134Z,97753.50
2019-06-08T18:00:53.529Z,97754.42
2019-06-08T18:05:58.020Z,97753.35
2019-06-08T18:11:01.464Z,97754.95
2019-06-08T18:16:05.073Z,97752.44
2019-06-08T18:21:08.466Z,97754.98
2019-06-08T18:26:11.865Z,97763.59
2019-06-08T18:31:15.384Z,97767.05
2019-06-08T18:36:19.209Z,97768.06
2019-06-08T18:41:22.616Z,97760.97
2019-06-08T18:46:27.231Z,97764.12
2019-06-08T18:51:30.990Z,97772.14
2019-06-08T18:56:36.057Z,97778.37
2019-06-08T19:01:40.805Z,97779.52
2019-06-08T19:06:48.806Z,97782.16
2019-06-08T19:11:51.949Z,97787.16
2019-06-08T19:16:57.943Z,97799.81
2019-06-08T19:22:00.492Z,97795.48
2019-06-08T19:27:03.885Z,97797.85
2019-06-08T19:32:07.618Z,97814.08
2019-06-08T19:37:11.012Z,97806.81
2019-06-08T19:42:14.665Z,97816.77
2019-06-08T19:47:18.081Z,97821.47
2019-06-08T19:52:21.440Z,97831.30
2019-06-08T19:57:24.928Z,97832.64
2019-06-08T20:02:28.620Z,97835.86
2019-06-08T20:07:32.065Z,97830.77
2019-06-08T20:12:37.207Z,97834.11
2019-06-08T20:17:41.657Z,97835.25
2019-06-08T20:22:46.692Z,97846.48
2019-06-08T20:27:51.655Z,97843.16
2019-06-08T20:32:57.412Z,97834.08
2019-06-08T20:38:00.252Z,97842.88
2019-06-08T20:43:03.649Z,97840.52
2019-06-08T20:48:07.049Z,97848.81
2019-06-08T20:53:10.440Z,97848.81
2019-06-08T20:58:13.832Z,97852.15
2019-06-08T21:03:17.537Z,97841.48
2019-06-08T21:08:20.997Z,97841.27
2019-06-08T21:13:24.634Z,97840.19
2019-06-08T21:18:28.052Z,97834.09
2019-06-08T21:23:32.270Z,97845.11
2019-06-08T21:28:35.754Z,97853.97
2019-06-08T21:33:39.145Z,97856.78
2019-06-08T21:38:42.634Z,97855.66
2019-06-08T21:43:48.933Z,97861.17
2019-06-08T21:48:53.019Z,97860.07
2019-06-08T21:53:59.221Z,97854.83
2019-06-08T21:59:02.447Z,97858.72
2019-06-08T22:04:07.768Z,97856.22
2019-06-08T22:09:11.982Z,97858.44
2019-06-08T22:14:15.435Z,97855.12
2019-06-08T22:19:18.855Z,97860.37
2019-06-08T22:24:22.250Z,97858.96
2019-06-08T22:29:27.563Z,97860.89
2019-06-08T22:34:30.761Z,97859.80
2019-06-08T22:39:34.158Z,97857.86
2019-06-08T22:44:37.785Z,97855.92
2019-06-08T22:49:41.459Z,97852.34
2019-06-08T22:54:44.853Z,97862.54
2019-06-08T22:59:48.261Z,97864.22
2019-06-08T23:04:52.010Z,97863.92
2019-06-08T23:09:59.348Z,97865.31
2019-06-08T23:15:02.016Z,97860.89
2019-06-08T23:20:08.706Z,97865.24
2019-06-08T23:25:11.661Z,97876.50
2019-06-08T23:30:18.263Z,97875.13
2019-06-08T23:35:20.724Z,97869.03
2019-06-08T23:40:24.112Z,97873.45
2019-06-08T23:45:27.606Z,97876.17
2019-06-08T23:50:31.009Z,97865.16
2019-06-08T23:55:34.402Z,97868.45
